Richmond, MN (56368)

5:41 AM CST on December 09, 2016 (GMT -0600)
Stratford Addition | | Change Station

Elev 1125 ft 45.60 °N, 94.47 °W | Updated 1 minute ago

Partly Cloudy
Partly Cloudy
2.8 °F
Feels Like 3 °F
N
2.7
Wind Variable Wind from SSW

Today
High -- | Low -- °F
--% Chance of Precip.
Yesterday
High -- | Low -- °F
Precip. -- in
Pressure 30.53 in
Visibility 10.0 miles
Clouds Clear
Windchill 3 °F
Dew Point 1 °F
Humidity 93%
Rainfall 0.00 in
Snow Depth Not available.
7:46 AM 4:34 PM
Waxing Gibbous, 73% visible
METAR KPEX 091133Z AUTO 28005KT 10SM CLR M17/M18 A3053 RMK AO2 T11681180
Pressure 30.53 in
Visibility 10.0 miles
Clouds Clear
Windchill 3 °F
Dew Point 1 °F
Humidity 93%
Rainfall 0.00 in
Snow Depth Not available.
7:46 AM 4:34 PM
Waxing Gibbous, 73% visible
METAR KPEX 091133Z AUTO 28005KT 10SM CLR M17/M18 A3053 RMK AO2 T11681180

10-Day Weather Forecast

Almanac

Astronomy

Dec. 09, 2016 Rise Set
Actual Time
Civil Twilight
Nautical Twilight
Astronomical Twilight
Moon
Length of Visible Light
Length of Day
Tomorrow will be .
, % of the Moon is Illuminated

Today's Extremes

State Highs State Lows

Community

WunderPhotos

Upload Photos

1,956,378 photos uploaded!

WunderBlog® & News

Nearby

Air Quality

  Air Quality AQ Index Pollutant
Not available.

Snow Depth

Station Depth Elevation

Earthquake Activity

City Distance Mag. Time & Date
Minimum magnitude displayed is 2.5.

Coastal Water Temperatures

Place Temperature

Stations

Nearby Weather Stations

Station Location Temp. Windchill Dew Point Humidity Wind Precip. Elev Updated Type
                   

Watches & Warnings

There are currently no watches in effect.